sensor_id;sensor_type;location;lat;lon;timestamp;P1;durP1;ratioP1;P2;durP2;ratioP2
55218;SDS011;41088;44.012;20.902;2022-07-01T00:00:37;10.90;;;4.60;;
55218;SDS011;41088;44.012;20.902;2022-07-01T00:03:04;11.10;;;4.43;;
55218;SDS011;41088;44.012;20.902;2022-07-01T00:05:30;8.50;;;4.45;;
55218;SDS011;41088;44.012;20.902;2022-07-01T00:07:56;8.60;;;4.63;;
55218;SDS011;41088;44.012;20.902;2022-07-01T00:10:22;9.43;;;4.40;;
55218;SDS011;41088;44.012;20.902;2022-07-01T00:12:48;5.93;;;4.30;;
55218;SDS011;41088;44.012;20.902;2022-07-01T00:15:14;8.63;;;4.45;;
55218;SDS011;41088;44.012;20.902;2022-07-01T00:17:40;8.95;;;4.80;;
55218;SDS011;41088;44.012;20.902;2022-07-01T00:20:07;6.43;;;4.32;;
55218;SDS011;41088;44.012;20.902;2022-07-01T00:22:34;7.43;;;4.65;;
55218;SDS011;41088;44.012;20.902;2022-07-01T00:25:00;5.78;;;4.07;;
55218;SDS011;41088;44.012;20.902;2022-07-01T00:27:26;5.32;;;4.13;;
55218;SDS011;41088;44.012;20.902;2022-07-01T00:29:52;7.05;;;4.38;;
55218;SDS011;41088;44.012;20.902;2022-07-01T00:32:19;5.88;;;4.05;;
55218;SDS011;41088;44.012;20.902;2022-07-01T00:34:45;7.43;;;4.10;;
55218;SDS011;41088;44.012;20.902;2022-07-01T00:37:11;6.80;;;4.10;;
55218;SDS011;41088;44.012;20.902;2022-07-01T00:39:37;6.85;;;3.95;;
55218;SDS011;41088;44.012;20.902;2022-07-01T00:42:03;7.22;;;3.88;;
55218;SDS011;41088;44.012;20.902;2022-07-01T00:44:30;7.85;;;4.15;;
55218;SDS011;41088;44.012;20.902;2022-07-01T00:46:57;7.78;;;4.07;;
55218;SDS011;41088;44.012;20.902;2022-07-01T00:49:25;11.38;;;4.10;;
55218;SDS011;41088;44.012;20.902;2022-07-01T00:51:52;7.20;;;3.90;;
55218;SDS011;41088;44.012;20.902;2022-07-01T00:54:19;5.40;;;3.92;;
55218;SDS011;41088;44.012;20.902;2022-07-01T00:56:46;8.68;;;4.00;;
55218;SDS011;41088;44.012;20.902;2022-07-01T00:59:13;5.97;;;3.97;;
55218;SDS011;41088;44.012;20.902;2022-07-01T01:01:39;8.30;;;4.22;;
55218;SDS011;41088;44.012;20.902;2022-07-01T01:04:06;9.23;;;4.40;;
55218;SDS011;41088;44.012;20.902;2022-07-01T01:06:33;7.53;;;4.10;;
55218;SDS011;41088;44.012;20.902;2022-07-01T01:08:59;6.82;;;4.15;;
55218;SDS011;41088;44.012;20.902;2022-07-01T01:11:26;8.13;;;4.20;;
55218;SDS011;41088;44.012;20.902;2022-07-01T01:13:52;9.43;;;4.07;;
55218;SDS011;41088;44.012;20.902;2022-07-01T01:16:19;9.82;;;4.30;;
55218;SDS011;41088;44.012;20.902;2022-07-01T01:18:45;6.82;;;4.10;;
55218;SDS011;41088;44.012;20.902;2022-07-01T01:21:12;7.70;;;4.55;;
55218;SDS011;41088;44.012;20.902;2022-07-01T01:23:38;7.45;;;4.20;;
55218;SDS011;41088;44.012;20.902;2022-07-01T01:26:15;6.03;;;4.10;;
55218;SDS011;41088;44.012;20.902;2022-07-01T01:28:43;5.90;;;4.20;;
55218;SDS011;41088;44.012;20.902;2022-07-01T01:31:09;8.57;;;4.57;;
55218;SDS011;41088;44.012;20.902;2022-07-01T01:33:36;9.60;;;4.50;;
55218;SDS011;41088;44.012;20.902;2022-07-01T01:36:03;6.22;;;4.60;;
55218;SDS011;41088;44.012;20.902;2022-07-01T01:38:31;9.02;;;4.50;;
55218;SDS011;41088;44.012;20.902;2022-07-01T01:40:57;7.00;;;4.40;;
55218;SDS011;41088;44.012;20.902;2022-07-01T01:43:25;9.75;;;4.78;;
55218;SDS011;41088;44.012;20.902;2022-07-01T01:45:52;9.52;;;4.47;;
55218;SDS011;41088;44.012;20.902;2022-07-01T01:48:18;6.30;;;4.80;;
55218;SDS011;41088;44.012;20.902;2022-07-01T01:50:44;9.95;;;4.68;;
55218;SDS011;41088;44.012;20.902;2022-07-01T01:53:11;7.68;;;4.13;;
55218;SDS011;41088;44.012;20.902;2022-07-01T01:55:37;7.35;;;4.20;;
55218;SDS011;41088;44.012;20.902;2022-07-01T01:58:04;9.55;;;4.40;;
55218;SDS011;41088;44.012;20.902;2022-07-01T02:00:31;9.07;;;4.82;;
55218;SDS011;41088;44.012;20.902;2022-07-01T02:02:57;8.85;;;4.28;;
55218;SDS011;41088;44.012;20.902;2022-07-01T02:05:23;10.27;;;5.03;;
55218;SDS011;41088;44.012;20.902;2022-07-01T02:07:49;7.97;;;5.05;;
55218;SDS011;41088;44.012;20.902;2022-07-01T02:10:15;7.53;;;4.85;;
55218;SDS011;41088;44.012;20.902;2022-07-01T02:12:42;8.90;;;5.22;;
55218;SDS011;41088;44.012;20.902;2022-07-01T02:15:08;9.73;;;4.93;;
55218;SDS011;41088;44.012;20.902;2022-07-01T02:17:34;11.27;;;5.30;;
55218;SDS011;41088;44.012;20.902;2022-07-01T02:20:00;6.45;;;5.00;;
55218;SDS011;41088;44.012;20.902;2022-07-01T02:22:26;11.15;;;5.47;;
55218;SDS011;41088;44.012;20.902;2022-07-01T02:24:53;8.80;;;5.25;;
55218;SDS011;41088;44.012;20.902;2022-07-01T02:27:19;10.32;;;5.85;;
55218;SDS011;41088;44.012;20.902;2022-07-01T02:29:45;13.25;;;5.28;;
55218;SDS011;41088;44.012;20.902;2022-07-01T02:32:11;9.02;;;5.80;;
55218;SDS011;41088;44.012;20.902;2022-07-01T02:34:37;11.82;;;6.07;;
55218;SDS011;41088;44.012;20.902;2022-07-01T02:37:03;13.10;;;6.28;;
55218;SDS011;41088;44.012;20.902;2022-07-01T02:39:30;12.65;;;6.95;;
55218;SDS011;41088;44.012;20.902;2022-07-01T02:41:57;11.85;;;7.25;;
55218;SDS011;41088;44.012;20.902;2022-07-01T02:44:41;14.95;;;6.90;;
55218;SDS011;41088;44.012;20.902;2022-07-01T02:47:07;11.27;;;6.60;;
55218;SDS011;41088;44.012;20.902;2022-07-01T02:49:33;15.10;;;7.25;;
55218;SDS011;41088;44.012;20.902;2022-07-01T02:51:59;13.25;;;7.45;;
55218;SDS011;41088;44.012;20.902;2022-07-01T02:54:27;10.63;;;7.68;;
55218;SDS011;41088;44.012;20.902;2022-07-01T02:56:54;13.40;;;7.32;;
55218;SDS011;41088;44.012;20.902;2022-07-01T02:59:21;11.70;;;6.70;;
55218;SDS011;41088;44.012;20.902;2022-07-01T03:01:47;14.70;;;7.28;;
55218;SDS011;41088;44.012;20.902;2022-07-01T03:04:13;12.23;;;7.40;;
55218;SDS011;41088;44.012;20.902;2022-07-01T03:06:39;10.80;;;6.65;;
55218;SDS011;41088;44.012;20.902;2022-07-01T03:09:06;14.43;;;6.45;;
55218;SDS011;41088;44.012;20.902;2022-07-01T03:11:32;14.20;;;6.22;;
55218;SDS011;41088;44.012;20.902;2022-07-01T03:13:58;13.98;;;6.53;;
55218;SDS011;41088;44.012;20.902;2022-07-01T03:16:24;10.20;;;6.22;;
55218;SDS011;41088;44.012;20.902;2022-07-01T03:18:50;12.68;;;6.38;;
55218;SDS011;41088;44.012;20.902;2022-07-01T03:21:16;16.58;;;6.65;;
55218;SDS011;41088;44.012;20.902;2022-07-01T03:23:42;16.95;;;6.60;;
55218;SDS011;41088;44.012;20.902;2022-07-01T03:26:08;11.43;;;6.30;;
55218;SDS011;41088;44.012;20.902;2022-07-01T03:28:34;13.15;;;6.70;;
55218;SDS011;41088;44.012;20.902;2022-07-01T03:31:00;13.93;;;6.45;;
55218;SDS011;41088;44.012;20.902;2022-07-01T03:33:26;18.35;;;6.70;;
55218;SDS011;41088;44.012;20.902;2022-07-01T03:35:53;12.35;;;5.90;;
55218;SDS011;41088;44.012;20.902;2022-07-01T03:38:19;13.23;;;6.40;;
55218;SDS011;41088;44.012;20.902;2022-07-01T03:40:45;11.55;;;6.13;;
55218;SDS011;41088;44.012;20.902;2022-07-01T03:43:11;13.70;;;6.53;;
55218;SDS011;41088;44.012;20.902;2022-07-01T03:45:37;13.93;;;6.28;;
55218;SDS011;41088;44.012;20.902;2022-07-01T03:48:05;14.00;;;7.25;;
55218;SDS011;41088;44.012;20.902;2022-07-01T03:50:31;11.20;;;5.90;;
55218;SDS011;41088;44.012;20.902;2022-07-01T03:52:57;13.82;;;5.53;;
55218;SDS011;41088;44.012;20.902;2022-07-01T03:55:43;18.27;;;5.65;;
55218;SDS011;41088;44.012;20.902;2022-07-01T03:58:09;9.63;;;5.80;;
55218;SDS011;41088;44.012;20.902;2022-07-01T04:00:36;11.65;;;5.53;;
55218;SDS011;41088;44.012;20.902;2022-07-01T04:03:03;13.30;;;5.40;;
55218;SDS011;41088;44.012;20.902;2022-07-01T04:05:34;10.88;;;5.57;;
55218;SDS011;41088;44.012;20.902;2022-07-01T04:08:04;8.20;;;5.15;;
55218;SDS011;41088;44.012;20.902;2022-07-01T04:10:31;12.60;;;5.22;;
55218;SDS011;41088;44.012;20.902;2022-07-01T04:13:02;15.57;;;5.63;;
55218;SDS011;41088;44.012;20.902;2022-07-01T04:15:28;11.00;;;5.28;;
55218;SDS011;41088;44.012;20.902;2022-07-01T04:17:54;10.88;;;5.15;;
55218;SDS011;41088;44.012;20.902;2022-07-01T04:20:20;11.27;;;5.65;;
55218;SDS011;41088;44.012;20.902;2022-07-01T04:22:46;11.00;;;5.57;;
55218;SDS011;41088;44.012;20.902;2022-07-01T04:25:13;12.82;;;5.45;;
55218;SDS011;41088;44.012;20.902;2022-07-01T04:27:40;11.13;;;5.47;;
55218;SDS011;41088;44.012;20.902;2022-07-01T04:30:07;14.13;;;5.90;;
55218;SDS011;41088;44.012;20.902;2022-07-01T04:32:33;13.00;;;5.60;;
55218;SDS011;41088;44.012;20.902;2022-07-01T04:35:00;13.93;;;5.68;;
55218;SDS011;41088;44.012;20.902;2022-07-01T04:37:26;15.30;;;5.57;;
55218;SDS011;41088;44.012;20.902;2022-07-01T04:39:52;11.43;;;5.18;;
55218;SDS011;41088;44.012;20.902;2022-07-01T04:42:18;16.70;;;5.00;;
55218;SDS011;41088;44.012;20.902;2022-07-01T04:44:47;12.43;;;5.10;;
55218;SDS011;41088;44.012;20.902;2022-07-01T04:47:13;13.18;;;5.43;;
55218;SDS011;41088;44.012;20.902;2022-07-01T04:49:39;11.25;;;5.20;;
55218;SDS011;41088;44.012;20.902;2022-07-01T04:52:05;11.55;;;5.10;;
55218;SDS011;41088;44.012;20.902;2022-07-01T04:54:31;9.50;;;5.03;;
55218;SDS011;41088;44.012;20.902;2022-07-01T04:56:57;13.07;;;5.20;;
55218;SDS011;41088;44.012;20.902;2022-07-01T04:59:23;9.90;;;4.68;;
55218;SDS011;41088;44.012;20.902;2022-07-01T05:01:49;11.48;;;4.70;;
55218;SDS011;41088;44.012;20.902;2022-07-01T05:04:16;11.68;;;5.53;;
55218;SDS011;41088;44.012;20.902;2022-07-01T05:06:43;12.15;;;4.85;;
55218;SDS011;41088;44.012;20.902;2022-07-01T05:09:10;12.63;;;4.63;;
55218;SDS011;41088;44.012;20.902;2022-07-01T05:11:38;9.27;;;4.47;;
55218;SDS011;41088;44.012;20.902;2022-07-01T05:14:04;10.23;;;4.43;;
55218;SDS011;41088;44.012;20.902;2022-07-01T05:16:32;12.13;;;4.53;;
55218;SDS011;41088;44.012;20.902;2022-07-01T05:18:58;10.57;;;4.65;;
55218;SDS011;41088;44.012;20.902;2022-07-01T05:21:43;9.88;;;4.65;;
55218;SDS011;41088;44.012;20.902;2022-07-01T05:24:21;10.38;;;4.68;;
55218;SDS011;41088;44.012;20.902;2022-07-01T05:26:48;9.80;;;4.45;;
55218;SDS011;41088;44.012;20.902;2022-07-01T05:29:14;9.73;;;4.13;;
55218;SDS011;41088;44.012;20.902;2022-07-01T05:31:41;10.90;;;4.68;;
55218;SDS011;41088;44.012;20.902;2022-07-01T05:34:07;11.40;;;5.25;;
55218;SDS011;41088;44.012;20.902;2022-07-01T05:36:33;16.55;;;5.40;;
55218;SDS011;41088;44.012;20.902;2022-07-01T05:39:00;9.88;;;5.28;;
55218;SDS011;41088;44.012;20.902;2022-07-01T05:41:26;11.57;;;4.85;;
55218;SDS011;41088;44.012;20.902;2022-07-01T05:43:52;10.10;;;4.35;;
55218;SDS011;41088;44.012;20.902;2022-07-01T05:46:18;10.75;;;4.47;;
55218;SDS011;41088;44.012;20.902;2022-07-01T05:48:44;12.25;;;4.35;;
55218;SDS011;41088;44.012;20.902;2022-07-01T05:51:11;9.77;;;4.30;;
55218;SDS011;41088;44.012;20.902;2022-07-01T05:53:36;8.27;;;4.20;;
55218;SDS011;41088;44.012;20.902;2022-07-01T05:56:03;10.63;;;3.78;;
55218;SDS011;41088;44.012;20.902;2022-07-01T05:58:29;11.23;;;4.10;;
55218;SDS011;41088;44.012;20.902;2022-07-01T06:00:55;7.55;;;3.97;;
55218;SDS011;41088;44.012;20.902;2022-07-01T06:03:22;11.35;;;4.57;;
55218;SDS011;41088;44.012;20.902;2022-07-01T06:05:48;10.13;;;4.22;;
55218;SDS011;41088;44.012;20.902;2022-07-01T06:08:14;9.70;;;4.80;;
55218;SDS011;41088;44.012;20.902;2022-07-01T06:10:40;9.35;;;4.18;;
55218;SDS011;41088;44.012;20.902;2022-07-01T06:13:06;9.00;;;4.30;;
55218;SDS011;41088;44.012;20.902;2022-07-01T06:15:32;11.18;;;4.45;;
55218;SDS011;41088;44.012;20.902;2022-07-01T06:18:00;16.23;;;4.40;;
55218;SDS011;41088;44.012;20.902;2022-07-01T06:20:26;10.90;;;4.13;;
55218;SDS011;41088;44.012;20.902;2022-07-01T06:22:52;9.75;;;4.10;;
55218;SDS011;41088;44.012;20.902;2022-07-01T06:25:18;10.93;;;4.43;;
55218;SDS011;41088;44.012;20.902;2022-07-01T06:27:44;15.10;;;4.60;;
55218;SDS011;41088;44.012;20.902;2022-07-01T06:30:11;9.98;;;4.38;;
55218;SDS011;41088;44.012;20.902;2022-07-01T06:32:38;9.85;;;4.32;;
55218;SDS011;41088;44.012;20.902;2022-07-01T06:35:05;10.07;;;4.43;;
55218;SDS011;41088;44.012;20.902;2022-07-01T06:37:33;13.65;;;4.97;;
55218;SDS011;41088;44.012;20.902;2022-07-01T06:40:01;10.88;;;4.70;;
55218;SDS011;41088;44.012;20.902;2022-07-01T06:42:28;13.40;;;4.88;;
55218;SDS011;41088;44.012;20.902;2022-07-01T06:44:54;11.40;;;4.60;;
55218;SDS011;41088;44.012;20.902;2022-07-01T06:47:20;11.45;;;5.25;;
55218;SDS011;41088;44.012;20.902;2022-07-01T06:49:46;8.80;;;4.47;;
55218;SDS011;41088;44.012;20.902;2022-07-01T06:52:13;11.75;;;4.60;;
55218;SDS011;41088;44.012;20.902;2022-07-01T06:54:39;15.00;;;4.72;;
55218;SDS011;41088;44.012;20.902;2022-07-01T06:57:05;13.73;;;4.88;;
55218;SDS011;41088;44.012;20.902;2022-07-01T06:59:32;14.73;;;5.13;;
55218;SDS011;41088;44.012;20.902;2022-07-01T07:01:59;13.93;;;4.88;;
55218;SDS011;41088;44.012;20.902;2022-07-01T07:04:25;16.90;;;5.75;;
55218;SDS011;41088;44.012;20.902;2022-07-01T07:06:51;16.33;;;4.90;;
55218;SDS011;41088;44.012;20.902;2022-07-01T07:09:17;9.85;;;4.68;;
55218;SDS011;41088;44.012;20.902;2022-07-01T07:11:43;16.67;;;5.40;;
55218;SDS011;41088;44.012;20.902;2022-07-01T07:14:08;9.48;;;5.15;;
55218;SDS011;41088;44.012;20.902;2022-07-01T07:16:34;11.75;;;5.03;;
55218;SDS011;41088;44.012;20.902;2022-07-01T07:19:00;10.40;;;4.80;;
55218;SDS011;41088;44.012;20.902;2022-07-01T07:21:26;10.43;;;4.45;;
55218;SDS011;41088;44.012;20.902;2022-07-01T07:23:52;17.52;;;5.32;;
55218;SDS011;41088;44.012;20.902;2022-07-01T07:26:18;10.73;;;4.72;;
55218;SDS011;41088;44.012;20.902;2022-07-01T07:28:44;12.32;;;4.35;;
55218;SDS011;41088;44.012;20.902;2022-07-01T07:31:10;12.13;;;4.10;;
55218;SDS011;41088;44.012;20.902;2022-07-01T07:33:35;12.52;;;4.80;;
55218;SDS011;41088;44.012;20.902;2022-07-01T07:36:01;15.75;;;4.40;;
55218;SDS011;41088;44.012;20.902;2022-07-01T07:38:27;14.25;;;4.55;;
55218;SDS011;41088;44.012;20.902;2022-07-01T07:40:53;10.95;;;4.32;;
55218;SDS011;41088;44.012;20.902;2022-07-01T07:43:19;14.68;;;4.25;;
55218;SDS011;41088;44.012;20.902;2022-07-01T07:45:48;8.63;;;3.90;;
55218;SDS011;41088;44.012;20.902;2022-07-01T07:48:14;12.07;;;4.05;;
55218;SDS011;41088;44.012;20.902;2022-07-01T07:50:40;11.90;;;4.10;;
55218;SDS011;41088;44.012;20.902;2022-07-01T07:53:06;9.90;;;3.80;;
55218;SDS011;41088;44.012;20.902;2022-07-01T07:55:33;12.27;;;4.68;;
55218;SDS011;41088;44.012;20.902;2022-07-01T07:57:59;15.07;;;4.10;;
55218;SDS011;41088;44.012;20.902;2022-07-01T08:00:25;10.50;;;3.65;;
55218;SDS011;41088;44.012;20.902;2022-07-01T08:02:51;9.75;;;3.50;;
55218;SDS011;41088;44.012;20.902;2022-07-01T08:05:17;10.48;;;3.85;;
55218;SDS011;41088;44.012;20.902;2022-07-01T08:07:44;10.25;;;4.05;;
55218;SDS011;41088;44.012;20.902;2022-07-01T08:10:11;13.23;;;3.60;;
55218;SDS011;41088;44.012;20.902;2022-07-01T08:12:39;11.52;;;3.78;;
55218;SDS011;41088;44.012;20.902;2022-07-01T08:15:06;7.45;;;3.15;;
55218;SDS011;41088;44.012;20.902;2022-07-01T08:17:32;9.77;;;3.03;;
55218;SDS011;41088;44.012;20.902;2022-07-01T08:19:59;12.18;;;3.70;;
55218;SDS011;41088;44.012;20.902;2022-07-01T08:22:24;13.57;;;4.60;;
55218;SDS011;41088;44.012;20.902;2022-07-01T08:24:51;11.68;;;3.88;;
55218;SDS011;41088;44.012;20.902;2022-07-01T08:27:17;12.80;;;3.58;;
55218;SDS011;41088;44.012;20.902;2022-07-01T08:29:43;8.38;;;3.28;;
55218;SDS011;41088;44.012;20.902;2022-07-01T08:32:09;8.40;;;3.67;;
55218;SDS011;41088;44.012;20.902;2022-07-01T08:34:35;7.97;;;3.40;;
55218;SDS011;41088;44.012;20.902;2022-07-01T08:37:02;8.65;;;3.72;;
55218;SDS011;41088;44.012;20.902;2022-07-01T08:39:30;9.00;;;3.80;;
55218;SDS011;41088;44.012;20.902;2022-07-01T08:41:56;10.35;;;3.70;;
55218;SDS011;41088;44.012;20.902;2022-07-01T08:44:22;9.65;;;3.55;;
55218;SDS011;41088;44.012;20.902;2022-07-01T08:46:49;8.13;;;3.40;;
55218;SDS011;41088;44.012;20.902;2022-07-01T08:49:16;7.97;;;3.42;;
55218;SDS011;41088;44.012;20.902;2022-07-01T08:51:43;8.40;;;3.50;;
55218;SDS011;41088;44.012;20.902;2022-07-01T08:54:09;10.50;;;3.47;;
55218;SDS011;41088;44.012;20.902;2022-07-01T08:56:35;12.93;;;3.55;;
55218;SDS011;41088;44.012;20.902;2022-07-01T08:59:12;11.48;;;3.67;;
55218;SDS011;41088;44.012;20.902;2022-07-01T09:01:54;10.13;;;3.17;;
55218;SDS011;41088;44.012;20.902;2022-07-01T09:04:22;12.27;;;4.07;;
55218;SDS011;41088;44.012;20.902;2022-07-01T09:06:49;12.82;;;4.10;;
55218;SDS011;41088;44.012;20.902;2022-07-01T09:09:21;11.00;;;3.58;;
55218;SDS011;41088;44.012;20.902;2022-07-01T09:11:48;7.10;;;3.30;;
55218;SDS011;41088;44.012;20.902;2022-07-01T09:14:33;8.80;;;3.63;;
55218;SDS011;41088;44.012;20.902;2022-07-01T09:17:04;10.00;;;3.70;;
55218;SDS011;41088;44.012;20.902;2022-07-01T09:19:37;11.35;;;3.33;;
55218;SDS011;41088;44.012;20.902;2022-07-01T09:22:05;12.50;;;4.45;;
55218;SDS011;41088;44.012;20.902;2022-07-01T09:24:33;13.73;;;4.45;;
55218;SDS011;41088;44.012;20.902;2022-07-01T09:27:04;13.37;;;4.27;;
55218;SDS011;41088;44.012;20.902;2022-07-01T09:29:37;9.98;;;3.95;;
55218;SDS011;41088;44.012;20.902;2022-07-01T09:32:06;11.40;;;4.10;;
55218;SDS011;41088;44.012;20.902;2022-07-01T09:34:47;11.10;;;4.30;;
55218;SDS011;41088;44.012;20.902;2022-07-01T09:37:14;10.75;;;3.90;;
55218;SDS011;41088;44.012;20.902;2022-07-01T09:39:46;10.90;;;3.65;;
55218;SDS011;41088;44.012;20.902;2022-07-01T09:42:21;8.27;;;3.40;;
55218;SDS011;41088;44.012;20.902;2022-07-01T09:44:53;12.13;;;4.18;;
55218;SDS011;41088;44.012;20.902;2022-07-01T09:47:23;10.90;;;3.80;;
55218;SDS011;41088;44.012;20.902;2022-07-01T09:49:53;14.32;;;4.47;;
55218;SDS011;41088;44.012;20.902;2022-07-01T09:52:20;10.55;;;3.80;;
55218;SDS011;41088;44.012;20.902;2022-07-01T09:54:48;8.48;;;3.67;;
55218;SDS011;41088;44.012;20.902;2022-07-01T09:57:15;9.48;;;3.55;;
55218;SDS011;41088;44.012;20.902;2022-07-01T09:59:42;11.38;;;3.60;;
55218;SDS011;41088;44.012;20.902;2022-07-01T10:02:08;17.92;;;7.80;;
55218;SDS011;41088;44.012;20.902;2022-07-01T10:04:36;10.35;;;3.90;;
55218;SDS011;41088;44.012;20.902;2022-07-01T10:14:51;9.20;;;3.75;;
55218;SDS011;41088;44.012;20.902;2022-07-01T10:17:28;12.32;;;4.10;;
55218;SDS011;41088;44.012;20.902;2022-07-01T10:20:14;10.07;;;3.90;;
55218;SDS011;41088;44.012;20.902;2022-07-01T10:23:03;8.30;;;3.78;;
55218;SDS011;41088;44.012;20.902;2022-07-01T10:28:13;8.65;;;4.30;;
55218;SDS011;41088;44.012;20.902;2022-07-01T10:36:42;9.15;;;4.60;;
55218;SDS011;41088;44.012;20.902;2022-07-01T10:39:12;10.00;;;4.57;;
55218;SDS011;41088;44.012;20.902;2022-07-01T10:41:41;8.52;;;4.00;;
55218;SDS011;41088;44.012;20.902;2022-07-01T10:44:19;11.15;;;4.50;;
55218;SDS011;41088;44.012;20.902;2022-07-01T10:46:49;11.88;;;5.28;;
55218;SDS011;41088;44.012;20.902;2022-07-01T10:52:10;11.80;;;7.00;;
55218;SDS011;41088;44.012;20.902;2022-07-01T10:59:46;13.73;;;4.53;;
55218;SDS011;41088;44.012;20.902;2022-07-01T11:05:00;8.20;;;4.70;;
55218;SDS011;41088;44.012;20.902;2022-07-01T11:07:27;10.75;;;4.40;;
55218;SDS011;41088;44.012;20.902;2022-07-01T11:09:59;7.97;;;4.68;;
55218;SDS011;41088;44.012;20.902;2022-07-01T11:12:27;10.27;;;4.53;;
55218;SDS011;41088;44.012;20.902;2022-07-01T11:14:54;12.93;;;4.50;;
55218;SDS011;41088;44.012;20.902;2022-07-01T11:17:24;12.93;;;4.90;;
55218;SDS011;41088;44.012;20.902;2022-07-01T11:19:52;8.82;;;4.00;;
55218;SDS011;41088;44.012;20.902;2022-07-01T11:22:23;8.75;;;4.20;;
55218;SDS011;41088;44.012;20.902;2022-07-01T11:24:51;8.50;;;4.50;;
55218;SDS011;41088;44.012;20.902;2022-07-01T11:27:19;7.90;;;3.92;;
55218;SDS011;41088;44.012;20.902;2022-07-01T11:29:55;6.38;;;3.90;;
55218;SDS011;41088;44.012;20.902;2022-07-01T11:32:29;10.75;;;6.03;;
55218;SDS011;41088;44.012;20.902;2022-07-01T11:34:59;9.70;;;4.32;;
55218;SDS011;41088;44.012;20.902;2022-07-01T11:37:28;13.55;;;5.93;;
55218;SDS011;41088;44.012;20.902;2022-07-01T11:40:14;8.23;;;4.15;;
55218;SDS011;41088;44.012;20.902;2022-07-01T11:42:43;12.32;;;4.40;;
55218;SDS011;41088;44.012;20.902;2022-07-01T11:45:23;7.80;;;3.90;;
55218;SDS011;41088;44.012;20.902;2022-07-01T11:47:51;9.93;;;4.50;;
55218;SDS011;41088;44.012;20.902;2022-07-01T11:50:18;8.70;;;3.90;;
55218;SDS011;41088;44.012;20.902;2022-07-01T11:52:46;9.82;;;3.78;;
55218;SDS011;41088;44.012;20.902;2022-07-01T11:55:12;8.82;;;3.78;;
55218;SDS011;41088;44.012;20.902;2022-07-01T11:57:38;15.88;;;5.88;;
55218;SDS011;41088;44.012;20.902;2022-07-01T12:00:08;8.60;;;3.67;;
55218;SDS011;41088;44.012;20.902;2022-07-01T12:02:39;6.47;;;3.88;;
55218;SDS011;41088;44.012;20.902;2022-07-01T12:05:06;7.95;;;3.58;;
55218;SDS011;41088;44.012;20.902;2022-07-01T12:07:33;6.75;;;3.53;;
55218;SDS011;41088;44.012;20.902;2022-07-01T12:10:00;8.07;;;3.88;;
55218;SDS011;41088;44.012;20.902;2022-07-01T12:12:46;11.13;;;5.65;;
55218;SDS011;41088;44.012;20.902;2022-07-01T12:15:13;5.80;;;4.35;;
55218;SDS011;41088;44.012;20.902;2022-07-01T12:17:40;7.85;;;4.32;;
55218;SDS011;41088;44.012;20.902;2022-07-01T12:20:06;7.97;;;4.05;;
55218;SDS011;41088;44.012;20.902;2022-07-01T12:22:33;9.10;;;4.10;;
55218;SDS011;41088;44.012;20.902;2022-07-01T12:27:35;6.20;;;3.42;;
55218;SDS011;41088;44.012;20.902;2022-07-01T12:30:04;7.90;;;3.72;;
55218;SDS011;41088;44.012;20.902;2022-07-01T12:32:34;14.35;;;4.15;;
55218;SDS011;41088;44.012;20.902;2022-07-01T12:35:03;9.73;;;4.30;;
55218;SDS011;41088;44.012;20.902;2022-07-01T12:37:52;7.00;;;3.40;;
55218;SDS011;41088;44.012;20.902;2022-07-01T12:40:25;7.15;;;3.83;;
55218;SDS011;41088;44.012;20.902;2022-07-01T12:42:56;7.28;;;3.70;;
55218;SDS011;41088;44.012;20.902;2022-07-01T12:45:25;9.27;;;3.60;;
55218;SDS011;41088;44.012;20.902;2022-07-01T12:47:52;15.88;;;4.68;;
55218;SDS011;41088;44.012;20.902;2022-07-01T12:50:22;6.30;;;3.70;;
55218;SDS011;41088;44.012;20.902;2022-07-01T12:52:56;10.63;;;3.80;;
55218;SDS011;41088;44.012;20.902;2022-07-01T12:55:31;12.13;;;4.05;;
55218;SDS011;41088;44.012;20.902;2022-07-01T12:58:02;9.25;;;3.80;;
55218;SDS011;41088;44.012;20.902;2022-07-01T13:00:36;7.53;;;3.40;;
55218;SDS011;41088;44.012;20.902;2022-07-01T13:03:04;7.93;;;3.42;;
55218;SDS011;41088;44.012;20.902;2022-07-01T13:05:32;7.75;;;3.70;;
55218;SDS011;41088;44.012;20.902;2022-07-01T13:07:59;10.75;;;3.72;;
55218;SDS011;41088;44.012;20.902;2022-07-01T13:10:26;6.43;;;3.50;;
55218;SDS011;41088;44.012;20.902;2022-07-01T13:12:52;8.60;;;3.88;;
55218;SDS011;41088;44.012;20.902;2022-07-01T13:15:19;7.38;;;3.40;;
55218;SDS011;41088;44.012;20.902;2022-07-01T13:17:46;14.48;;;5.38;;
55218;SDS011;41088;44.012;20.902;2022-07-01T13:20:13;13.65;;;4.00;;
55218;SDS011;41088;44.012;20.902;2022-07-01T13:22:40;11.13;;;4.30;;
55218;SDS011;41088;44.012;20.902;2022-07-01T13:25:06;10.90;;;3.70;;
55218;SDS011;41088;44.012;20.902;2022-07-01T13:27:33;8.75;;;3.40;;
55218;SDS011;41088;44.012;20.902;2022-07-01T13:29:59;16.05;;;4.00;;
55218;SDS011;41088;44.012;20.902;2022-07-01T13:32:29;16.00;;;3.92;;
55218;SDS011;41088;44.012;20.902;2022-07-01T13:34:55;7.68;;;3.42;;
55218;SDS011;41088;44.012;20.902;2022-07-01T13:37:21;8.43;;;4.00;;
55218;SDS011;41088;44.012;20.902;2022-07-01T13:39:47;8.10;;;3.67;;
55218;SDS011;41088;44.012;20.902;2022-07-01T13:42:13;11.18;;;4.10;;
55218;SDS011;41088;44.012;20.902;2022-07-01T13:44:40;7.05;;;2.97;;
55218;SDS011;41088;44.012;20.902;2022-07-01T13:47:07;11.65;;;3.95;;
55218;SDS011;41088;44.012;20.902;2022-07-01T13:49:39;7.90;;;3.67;;
55218;SDS011;41088;44.012;20.902;2022-07-01T13:52:07;8.85;;;3.70;;
55218;SDS011;41088;44.012;20.902;2022-07-01T13:54:34;9.13;;;3.70;;
55218;SDS011;41088;44.012;20.902;2022-07-01T13:57:00;9.38;;;3.55;;
55218;SDS011;41088;44.012;20.902;2022-07-01T13:59:27;7.07;;;3.75;;
55218;SDS011;41088;44.012;20.902;2022-07-01T14:01:53;8.88;;;4.07;;
55218;SDS011;41088;44.012;20.902;2022-07-01T14:04:19;10.52;;;4.30;;
55218;SDS011;41088;44.012;20.902;2022-07-01T14:06:45;6.70;;;3.58;;
55218;SDS011;41088;44.012;20.902;2022-07-01T14:09:11;12.27;;;3.70;;
55218;SDS011;41088;44.012;20.902;2022-07-01T14:11:37;12.32;;;3.80;;
55218;SDS011;41088;44.012;20.902;2022-07-01T14:14:03;12.90;;;3.90;;
55218;SDS011;41088;44.012;20.902;2022-07-01T14:16:30;5.47;;;3.63;;
55218;SDS011;41088;44.012;20.902;2022-07-01T14:18:57;8.20;;;3.90;;
55218;SDS011;41088;44.012;20.902;2022-07-01T14:21:23;7.50;;;3.80;;
55218;SDS011;41088;44.012;20.902;2022-07-01T14:23:50;8.43;;;3.80;;
55218;SDS011;41088;44.012;20.902;2022-07-01T14:26:16;9.50;;;3.92;;
55218;SDS011;41088;44.012;20.902;2022-07-01T14:28:42;6.90;;;3.83;;
55218;SDS011;41088;44.012;20.902;2022-07-01T14:31:08;9.35;;;4.20;;
55218;SDS011;41088;44.012;20.902;2022-07-01T14:33:35;5.82;;;3.83;;
55218;SDS011;41088;44.012;20.902;2022-07-01T14:36:01;8.30;;;3.92;;
55218;SDS011;41088;44.012;20.902;2022-07-01T14:38:27;10.85;;;4.03;;
55218;SDS011;41088;44.012;20.902;2022-07-01T14:40:53;8.35;;;4.10;;
55218;SDS011;41088;44.012;20.902;2022-07-01T14:43:19;8.05;;;3.50;;
55218;SDS011;41088;44.012;20.902;2022-07-01T14:45:45;9.30;;;4.03;;
55218;SDS011;41088;44.012;20.902;2022-07-01T14:48:11;11.98;;;3.95;;
55218;SDS011;41088;44.012;20.902;2022-07-01T14:50:39;10.55;;;4.03;;
55218;SDS011;41088;44.012;20.902;2022-07-01T14:53:05;8.23;;;3.92;;
55218;SDS011;41088;44.012;20.902;2022-07-01T14:55:33;5.25;;;3.60;;
55218;SDS011;41088;44.012;20.902;2022-07-01T14:57:59;9.40;;;4.00;;
55218;SDS011;41088;44.012;20.902;2022-07-01T15:00:25;10.05;;;4.05;;